Aérodrome :
LOGIN :

S'inscrire | Disclaimer

   EN    FR    IT 

 










Légende :    VFR   VFR Marginal   IFR   IFR Intensif   IFR Très Intensif
Visi : 
Plafond : 
>= 8 km
>= 3000ft
5 à 8 km
1000 à 3000 ft
1500m à 5 km
500 à 1000 ft
800 à 1500m
200 à 500 ft
< 800m
< 200 ft
Symboles :   Orages  Brouillard  Fortes neiges  Fortes précipitations  Vent > 20 kt
SIGMETs :   Divers  Orages  Givrage  Turbulence  Onde Orograph.  Cendres Volcan.






- Altitude de l'aérodrome : 353 ft
- Code IATA : LIN


LIML - Milano Linate

DERNIER METAR :
  • 160720Z 09006KT 050V130 9999 SCT090 08/01 Q1020 NOSIG

METARs EXPIRÉS :
  • 160650Z 11003KT 070V130 9999 FEW060 SCT090 07/02 Q1020 NOSIG
  • 160620Z 07004KT 9999 SCT060 06/02 Q1020 NOSIG
  • 160550Z VRB02KT 9999 SCT060 06/03 Q1020 NOSIG
  • 160520Z VRB01KT 9999 SCT060 04/03 Q1020 NOSIG
  • 160450Z VRB02KT 9999 SCT060 04/02 Q1020 NOSIG

TAF TAF LIML
Valide du 16 à 06h jusqu'au 17 à 06h UTC


160500Z 1606/1706 03006KT 9999 SCT030
BECMG 1607/1609 10010KT



MET'MAP, la Météo Aéronautique d'un coup d'oeil ! - Copyright ORBIFLY Décembre 2007 - Disclaimer

ORBIFLY MET'MAP TEAM :

Programmation & Développement : Alexandra Zaïnal
Sur une idée originale de : Baudouin d'Aumeries
Assistance à la programmation : Marc-Olivier Méhu
Soutien technique & logistique : Manuel Goepfert

Contact : metmap@orbifly.com




SOURCES & CREDITS :

   NOAA